Aérodrome :
LOGIN :

S'inscrire | Disclaimer

   EN    FR    IT 

 










Légende :    VFR   VFR Marginal   IFR   IFR Intensif   IFR Très Intensif
Visi : 
Plafond : 
>= 8 km
>= 3000ft
5 à 8 km
1000 à 3000 ft
1500m à 5 km
500 à 1000 ft
800 à 1500m
200 à 500 ft
< 800m
< 200 ft
Symboles :   Orages  Brouillard  Fortes neiges  Fortes précipitations  Vent > 20 kt
SIGMETs :   Divers  Orages  Givrage  Turbulence  Onde Orograph.  Cendres Volcan.







- Altitude de l'aérodrome : 604 ft
- Code IATA : LCJ


EPLL - Lodz

DERNIER METAR :
  • 232130Z 30006KT 260V330 9999 SCT013 OVC016 13/11 Q1014

METARs EXPIRÉS :
  • 232100Z 29005KT 9999 FEW013 BKN016 13/11 Q1014
  • 232030Z 29005KT 9999 BKN018 OVC023 14/11 Q1014
  • 232000Z 30005KT 260V340 9999 SCT011 OVC017 14/11 Q1014
  • 231930Z 30005KT 270V340 9999 FEW008 BKN014 14/11 Q1014
  • 231900Z 30008KT 270V330 9999 SCT007 BKN013 14/11 Q1014

TAF TAF EPLL
Valide du 23 à 18h jusqu'au 24 à 18h UTC


231730Z 2318/2418 30008KT 9999 BKN018
TEMPO 2318/2406 BKN012
Pas de NOTAMs connus pour ce terrain.



MET'MAP, la Météo Aéronautique d'un coup d'oeil ! - Copyright ORBIFLY Décembre 2007 - Disclaimer

ORBIFLY MET'MAP TEAM :

Programmation & Développement : Alexandra Zaïnal
Conception & Développement : Baudouin d'Aumeries
Co-Programmation & Développement : Marc-Olivier Méhu
Soutien technique & logistique : Manuel Goepfert

Contact : metmap@orbifly.com




SOURCES & CREDITS :

   NOAA